createdAt,value
2019-03-26T00:03:32.899Z,102644.10
2019-03-26T00:06:17.206Z,102669.48
2019-03-26T00:09:02.387Z,102668.51
2019-03-26T00:11:53.074Z,102645.55
2019-03-26T00:14:38.165Z,102672.45
2019-03-26T00:17:22.282Z,102645.50
2019-03-26T00:20:06.363Z,102650.90
2019-03-26T00:22:50.740Z,102651.97
2019-03-26T00:25:40.880Z,102659.91
2019-03-26T00:28:25.556Z,102654.22
2019-03-26T00:31:12.080Z,102681.28
2019-03-26T00:33:56.476Z,102656.14
2019-03-26T00:36:41.886Z,102683.21
2019-03-26T00:39:26.635Z,102657.44
2019-03-26T00:42:11.423Z,102654.84
2019-03-26T00:44:55.608Z,102656.37
2019-03-26T00:47:40.452Z,102683.36
2019-03-26T00:50:25.022Z,102678.70
2019-03-26T00:53:10.807Z,102653.17
2019-03-26T00:55:55.314Z,102659.67
2019-03-26T00:58:39.862Z,102662.54
2019-03-26T01:01:24.466Z,102658.81
2019-03-26T01:03:57.999Z,102684.06
2019-03-26T01:06:41.956Z,102690.70
2019-03-26T01:09:26.287Z,102670.86
2019-03-26T01:12:11.282Z,102662.38
2019-03-26T01:14:56.078Z,102687.19
2019-03-26T01:17:42.270Z,102657.14
2019-03-26T01:20:28.242Z,102689.88
2019-03-26T01:23:12.063Z,102688.66
2019-03-26T01:25:56.877Z,102677.69
2019-03-26T01:28:41.331Z,102684.59
2019-03-26T01:31:25.392Z,102661.98
2019-03-26T01:34:10.665Z,102657.30
2019-03-26T01:36:55.703Z,102662.36
2019-03-26T01:39:40.351Z,102682.23
2019-03-26T01:42:24.701Z,102653.13
2019-03-26T01:45:09.276Z,102656.87
2019-03-26T01:47:53.737Z,102652.48
2019-03-26T01:50:38.413Z,102647.95
2019-03-26T01:53:22.626Z,102670.28
2019-03-26T01:56:07.236Z,102642.59
2019-03-26T01:58:52.716Z,102647.89
2019-03-26T02:01:26.131Z,102674.70
2019-03-26T02:04:10.627Z,102678.86
2019-03-26T02:06:55.353Z,102674.77
2019-03-26T02:09:40.238Z,102677.34
2019-03-26T02:12:25.015Z,102644.38
2019-03-26T02:18:18.538Z,102670.66
2019-03-26T02:21:02.804Z,102647.75
2019-03-26T02:23:46.880Z,102649.31
2019-03-26T02:26:31.151Z,102675.67
2019-03-26T02:29:15.634Z,102643.42
2019-03-26T02:32:00.842Z,102668.86
2019-03-26T02:34:34.613Z,102668.48
2019-03-26T02:37:18.557Z,102658.79
2019-03-26T02:40:03.579Z,102660.83
2019-03-26T02:42:48.902Z,102668.33
2019-03-26T02:45:33.730Z,102662.66
2019-03-26T02:48:18.900Z,102637.22
2019-03-26T02:51:03.718Z,102638.45
2019-03-26T02:53:48.802Z,102635.70
2019-03-26T02:56:33.371Z,102630.63
2019-03-26T02:59:17.589Z,102623.98
2019-03-26T03:02:01.875Z,102648.56
2019-03-26T03:04:46.111Z,102649.32
2019-03-26T03:07:35.998Z,102621.84
2019-03-26T03:13:23.008Z,102650.19
2019-03-26T03:16:07.989Z,102641.28
2019-03-26T03:18:51.927Z,102644.75
2019-03-26T03:21:36.093Z,102644.41
2019-03-26T03:24:21.083Z,102652.23
2019-03-26T03:30:08.354Z,102615.06
2019-03-26T03:35:57.136Z,102643.91
2019-03-26T03:38:42.951Z,102616.09
2019-03-26T03:41:27.170Z,102609.94
2019-03-26T03:44:11.317Z,102623.44
2019-03-26T03:46:55.581Z,102619.05
2019-03-26T03:49:40.068Z,102619.61
2019-03-26T03:52:24.677Z,102635.98
2019-03-26T03:55:14.961Z,102607.48
2019-03-26T03:58:00.103Z,102609.80
2019-03-26T04:00:45.244Z,102608.48
2019-03-26T04:03:30.183Z,102597.66
2019-03-26T04:06:14.451Z,102595.11
2019-03-26T04:08:59.010Z,102597.09
2019-03-26T04:11:32.290Z,102623.88
2019-03-26T04:14:16.647Z,102596.30
2019-03-26T04:17:01.488Z,102621.62
2019-03-26T04:19:46.130Z,102598.08
2019-03-26T04:22:30.879Z,102610.06
2019-03-26T04:25:15.118Z,102598.56
2019-03-26T04:27:59.945Z,102591.20
2019-03-26T04:30:44.751Z,102613.63
2019-03-26T04:33:29.431Z,102615.29
2019-03-26T04:36:25.336Z,102579.66
2019-03-26T04:39:00.447Z,102611.31
2019-03-26T04:41:35.511Z,102610.53
2019-03-26T04:44:20.242Z,102583.70
2019-03-26T04:47:06.014Z,102593.05
2019-03-26T04:49:51.026Z,102584.62
2019-03-26T04:52:35.426Z,102597.95
2019-03-26T04:55:24.628Z,102567.93
2019-03-26T04:58:09.059Z,102597.17
2019-03-26T05:00:53.131Z,102572.47
2019-03-26T05:03:36.901Z,102568.69
2019-03-26T05:06:21.022Z,102572.73
2019-03-26T05:09:05.611Z,102600.77
2019-03-26T05:11:49.620Z,102574.91
2019-03-26T05:14:33.443Z,102573.19
2019-03-26T05:17:18.370Z,102585.96
2019-03-26T05:20:03.368Z,102588.03
2019-03-26T05:22:48.233Z,102570.05
2019-03-26T05:25:32.793Z,102596.88
2019-03-26T05:28:17.148Z,102572.59
2019-03-26T05:31:01.461Z,102564.55
2019-03-26T05:33:47.182Z,102573.30
2019-03-26T05:36:32.541Z,102600.39
2019-03-26T05:39:16.931Z,102602.45
2019-03-26T05:42:01.632Z,102582.25
2019-03-26T05:44:46.039Z,102611.68
2019-03-26T05:47:30.360Z,102609.58
2019-03-26T05:50:15.011Z,102574.16
2019-03-26T05:52:59.355Z,102584.14
2019-03-26T05:55:44.265Z,102611.05
2019-03-26T05:58:28.786Z,102583.88
2019-03-26T06:01:12.996Z,102582.14
2019-03-26T06:03:57.955Z,102602.48
2019-03-26T06:06:42.072Z,102581.05
2019-03-26T06:09:26.499Z,102583.41
2019-03-26T06:12:11.529Z,102601.12
2019-03-26T06:14:56.592Z,102597.41
2019-03-26T06:17:41.321Z,102570.55
2019-03-26T06:20:25.441Z,102598.29
2019-03-26T06:23:10.546Z,102583.31
2019-03-26T06:25:55.190Z,102590.52
2019-03-26T06:28:39.849Z,102581.42
2019-03-26T06:31:24.303Z,102587.47
2019-03-26T06:34:11.040Z,102616.33
2019-03-26T06:36:55.800Z,102607.23
2019-03-26T06:39:42.447Z,102584.84
2019-03-26T06:42:27.485Z,102605.85
2019-03-26T06:45:13.285Z,102609.39
2019-03-26T06:47:58.342Z,102563.27
2019-03-26T06:50:43.424Z,102554.30
2019-03-26T06:53:29.486Z,102554.63
2019-03-26T06:56:15.148Z,102553.23
2019-03-26T06:59:00.329Z,102583.54
2019-03-26T07:01:43.786Z,102568.67
2019-03-26T07:04:29.445Z,102584.02
2019-03-26T07:07:14.452Z,102593.86
2019-03-26T07:09:59.258Z,102587.02
2019-03-26T07:12:43.493Z,102560.24
2019-03-26T07:21:49.731Z,102595.16
2019-03-26T07:24:32.128Z,102585.17
2019-03-26T07:27:05.183Z,102601.02
2019-03-26T07:29:48.998Z,102602.16
2019-03-26T07:32:39.289Z,102575.66
2019-03-26T07:35:23.576Z,102602.05
2019-03-26T07:38:08.657Z,102600.28
2019-03-26T07:40:53.659Z,102572.33
2019-03-26T07:43:37.964Z,102581.47
2019-03-26T07:46:26.097Z,102584.96
2019-03-26T07:49:11.308Z,102611.09
2019-03-26T07:52:01.901Z,102592.60
2019-03-26T07:54:45.779Z,102611.43
2019-03-26T07:57:30.739Z,102608.26
2019-03-26T08:00:14.996Z,102580.19
2019-03-26T08:02:59.006Z,102589.57
2019-03-26T08:05:43.096Z,102613.52
2019-03-26T08:08:27.132Z,102583.31
2019-03-26T08:11:10.965Z,102587.03
2019-03-26T08:13:55.467Z,102589.47
2019-03-26T08:16:39.708Z,102608.84
2019-03-26T08:19:23.683Z,102606.42
2019-03-26T08:22:07.621Z,102582.27
2019-03-26T08:24:52.523Z,102586.34
2019-03-26T08:27:37.482Z,102599.08
2019-03-26T08:30:23.550Z,102586.59
2019-03-26T08:33:07.927Z,102582.41
2019-03-26T08:35:52.463Z,102585.48
2019-03-26T08:38:37.638Z,102583.93
2019-03-26T08:41:23.162Z,102578.67
2019-03-26T08:44:08.778Z,102604.06
2019-03-26T08:46:54.096Z,102574.28
2019-03-26T08:49:38.427Z,102594.70
2019-03-26T08:52:13.456Z,102594.25
2019-03-26T08:54:57.721Z,102589.78
2019-03-26T08:57:41.787Z,102589.72
2019-03-26T09:00:26.450Z,102593.59
2019-03-26T09:03:11.239Z,102572.14
2019-03-26T09:05:56.644Z,102579.20
2019-03-26T09:08:41.039Z,102608.03
2019-03-26T09:11:26.106Z,102586.48
2019-03-26T09:14:09.361Z,102607.84
2019-03-26T09:16:53.771Z,102584.21
2019-03-26T09:19:37.818Z,102607.61
2019-03-26T09:25:24.223Z,102589.70
2019-03-26T09:28:08.716Z,102587.20
2019-03-26T09:30:53.021Z,102618.84
2019-03-26T09:33:40.384Z,102611.05
2019-03-26T09:36:24.740Z,102592.67
2019-03-26T09:39:08.547Z,102600.69
2019-03-26T09:41:52.782Z,102566.69
2019-03-26T09:44:38.250Z,102580.22
2019-03-26T09:47:22.294Z,102551.80
2019-03-26T09:49:57.311Z,102581.01
2019-03-26T09:52:41.821Z,102558.27
2019-03-26T09:55:26.166Z,102557.29
2019-03-26T09:58:11.804Z,102575.87
2019-03-26T10:00:56.737Z,102594.41
2019-03-26T10:03:40.887Z,102568.27
2019-03-26T10:06:25.681Z,102576.80
2019-03-26T10:09:10.405Z,102581.54
2019-03-26T10:11:54.852Z,102605.98
2019-03-26T10:14:39.659Z,102580.27
2019-03-26T10:17:12.725Z,102603.05
2019-03-26T10:19:57.385Z,102600.13
2019-03-26T10:22:41.622Z,102583.94
2019-03-26T10:25:28.903Z,102609.44
2019-03-26T10:28:21.252Z,102609.83
2019-03-26T10:31:05.854Z,102578.70
2019-03-26T10:33:50.393Z,102607.28
2019-03-26T10:36:34.564Z,102583.23
2019-03-26T10:39:09.380Z,102603.53
2019-03-26T10:41:55.478Z,102602.89
2019-03-26T10:44:40.350Z,102589.87
2019-03-26T10:47:25.090Z,102586.13
2019-03-26T10:50:10.559Z,102614.05
2019-03-26T10:52:55.159Z,102595.69
2019-03-26T10:55:38.961Z,102616.50
2019-03-26T10:58:12.652Z,102605.11
2019-03-26T11:00:57.797Z,102598.91
2019-03-26T11:03:41.912Z,102586.05
2019-03-26T11:06:28.138Z,102608.55
2019-03-26T11:09:21.279Z,102612.31
2019-03-26T11:12:04.852Z,102583.59
2019-03-26T11:14:49.674Z,102604.92
2019-03-26T11:17:34.079Z,102608.34
2019-03-26T11:20:18.275Z,102581.25
2019-03-26T11:23:05.428Z,102611.34
2019-03-26T11:25:49.978Z,102616.41
2019-03-26T11:28:37.439Z,102596.28
2019-03-26T11:31:21.605Z,102601.10
2019-03-26T11:34:06.647Z,102621.00
2019-03-26T11:36:51.246Z,102598.04
2019-03-26T11:39:37.402Z,102618.42
2019-03-26T11:42:21.600Z,102596.08
2019-03-26T11:45:09.950Z,102590.33
2019-03-26T11:48:00.260Z,102611.15
2019-03-26T11:50:44.817Z,102589.41
2019-03-26T11:53:29.423Z,102588.69
2019-03-26T11:56:14.087Z,102609.33
2019-03-26T11:58:57.889Z,102588.27
2019-03-26T12:01:42.852Z,102610.41
2019-03-26T12:04:28.243Z,102615.69
2019-03-26T12:07:12.642Z,102586.27
2019-03-26T12:09:57.024Z,102592.64
2019-03-26T12:12:43.513Z,102615.26
2019-03-26T12:15:27.794Z,102620.77
2019-03-26T12:18:12.536Z,102614.40
2019-03-26T12:20:56.387Z,102640.41
2019-03-26T12:23:41.607Z,102608.15
2019-03-26T12:26:26.307Z,102630.83
2019-03-26T12:29:11.014Z,102621.69
2019-03-26T12:31:54.981Z,102597.67
2019-03-26T12:34:39.825Z,102627.53
2019-03-26T12:37:25.648Z,102631.44
2019-03-26T12:40:09.371Z,102604.02
2019-03-26T12:42:53.775Z,102599.91
2019-03-26T12:45:26.788Z,102624.93
2019-03-26T12:48:11.352Z,102601.84
2019-03-26T12:50:56.021Z,102623.63
2019-03-26T12:53:41.317Z,102627.08
2019-03-26T12:56:28.926Z,102630.59
2019-03-26T12:59:30.426Z,102627.22
2019-03-26T13:02:15.402Z,102638.53
2019-03-26T13:04:59.324Z,102666.73
2019-03-26T13:07:44.837Z,102641.17
2019-03-26T13:10:28.761Z,102648.80
2019-03-26T13:13:13.479Z,102642.12
2019-03-26T13:15:57.262Z,102636.52
2019-03-26T13:18:41.066Z,102641.89
2019-03-26T13:21:27.980Z,102668.53
2019-03-26T13:24:11.914Z,102664.70
2019-03-26T13:26:56.265Z,102677.55
2019-03-26T13:29:40.921Z,102675.11
2019-03-26T13:32:24.765Z,102647.65
2019-03-26T13:35:09.319Z,102678.41
2019-03-26T13:37:53.744Z,102657.03
2019-03-26T13:40:27.938Z,102689.18
2019-03-26T13:43:25.603Z,102654.83
2019-03-26T13:46:12.331Z,102652.38
2019-03-26T13:48:57.874Z,102659.50
2019-03-26T13:51:41.865Z,102684.16
2019-03-26T13:54:26.071Z,102682.11
2019-03-26T13:57:10.254Z,102693.78
2019-03-26T13:59:55.074Z,102660.67
2019-03-26T14:02:39.661Z,102694.81
2019-03-26T14:05:24.528Z,102697.13
2019-03-26T14:08:08.944Z,102694.61
2019-03-26T14:10:53.684Z,102696.77
2019-03-26T14:13:38.186Z,102676.38
2019-03-26T14:16:22.120Z,102677.03
2019-03-26T14:19:06.604Z,102701.31
2019-03-26T14:21:51.180Z,102703.84
2019-03-26T14:24:36.284Z,102681.36
2019-03-26T14:27:20.431Z,102712.05
2019-03-26T14:30:04.963Z,102687.52
2019-03-26T14:32:49.706Z,102686.50
2019-03-26T14:35:33.828Z,102692.92
2019-03-26T14:38:08.272Z,102723.05
2019-03-26T14:40:54.183Z,102719.83
2019-03-26T14:43:39.793Z,102696.61
2019-03-26T14:46:24.249Z,102705.70
2019-03-26T14:49:09.012Z,102692.86
2019-03-26T14:51:53.464Z,102699.00
2019-03-26T14:54:37.329Z,102726.16
2019-03-26T14:57:20.867Z,102708.12
2019-03-26T15:00:04.840Z,102697.89
2019-03-26T15:02:50.716Z,102698.66
2019-03-26T15:05:37.108Z,102719.03
2019-03-26T15:08:23.417Z,102707.83
2019-03-26T15:11:08.520Z,102716.44
2019-03-26T15:13:52.474Z,102726.30
2019-03-26T15:16:36.417Z,102713.17
2019-03-26T15:19:20.212Z,102728.05
2019-03-26T15:22:04.421Z,102703.38
2019-03-26T15:24:48.263Z,102719.87
2019-03-26T15:27:21.580Z,102726.33
2019-03-26T15:30:06.491Z,102728.95
2019-03-26T15:32:51.081Z,102723.76
2019-03-26T15:35:35.286Z,102727.39
2019-03-26T15:38:19.710Z,102694.33
2019-03-26T15:43:52.840Z,102696.87
2019-03-26T15:46:38.349Z,102719.26
2019-03-26T15:49:22.751Z,102699.50
2019-03-26T15:52:08.429Z,102700.38
2019-03-26T15:54:42.475Z,102717.09
2019-03-26T15:57:27.017Z,102716.34
2019-03-26T16:00:11.400Z,102719.26
2019-03-26T16:02:55.803Z,102691.95
2019-03-26T16:05:40.717Z,102705.39
2019-03-26T16:08:25.733Z,102689.94
2019-03-26T16:11:10.093Z,102679.97
2019-03-26T16:13:54.531Z,102710.38
2019-03-26T16:16:38.590Z,102709.77
2019-03-26T16:19:32.223Z,102686.91
2019-03-26T16:22:08.733Z,102709.86
2019-03-26T16:24:53.467Z,102706.75
2019-03-26T16:27:37.588Z,102683.80
2019-03-26T16:30:23.395Z,102680.34
2019-03-26T16:33:08.103Z,102706.97
2019-03-26T16:35:53.053Z,102708.97
2019-03-26T16:38:37.379Z,102696.61
2019-03-26T16:41:22.824Z,102689.78
2019-03-26T16:44:07.313Z,102715.56
2019-03-26T16:46:52.347Z,102720.08
2019-03-26T16:49:36.973Z,102726.70
2019-03-26T16:52:21.915Z,102730.56
2019-03-26T16:55:06.878Z,102695.31
2019-03-26T16:57:51.676Z,102694.17
2019-03-26T17:00:36.430Z,102725.23
2019-03-26T17:03:31.059Z,102697.19
2019-03-26T17:06:11.900Z,102703.97
2019-03-26T17:08:57.217Z,102698.97
2019-03-26T17:11:41.507Z,102701.66
2019-03-26T17:14:26.348Z,102700.28
2019-03-26T17:17:10.753Z,102697.70
2019-03-26T17:19:55.373Z,102729.59
2019-03-26T17:22:40.407Z,102738.08
2019-03-26T17:25:24.773Z,102712.73
2019-03-26T17:28:10.418Z,102724.56
2019-03-26T17:30:45.072Z,102754.30
2019-03-26T17:33:31.237Z,102753.00
2019-03-26T17:36:21.535Z,102727.09
2019-03-26T17:39:07.611Z,102749.62
2019-03-26T17:41:53.617Z,102728.98
2019-03-26T17:44:37.587Z,102754.26
2019-03-26T17:47:25.189Z,102759.30
2019-03-26T17:50:09.361Z,102728.03
2019-03-26T17:52:53.527Z,102758.60
2019-03-26T17:55:37.448Z,102770.47
2019-03-26T17:58:21.923Z,102748.50
2019-03-26T18:01:06.481Z,102787.38
2019-03-26T18:03:50.570Z,102757.80
2019-03-26T18:06:34.771Z,102787.58
2019-03-26T18:09:18.851Z,102793.66
2019-03-26T18:12:02.709Z,102802.87
2019-03-26T18:14:46.588Z,102783.28
2019-03-26T18:17:30.961Z,102787.74
2019-03-26T18:20:15.744Z,102792.08
2019-03-26T18:23:00.156Z,102795.09
2019-03-26T18:25:44.007Z,102810.41
2019-03-26T18:28:28.021Z,102813.86
2019-03-26T18:31:12.459Z,102788.34
2019-03-26T18:33:57.112Z,102793.50
2019-03-26T18:36:41.401Z,102791.69
2019-03-26T18:39:26.168Z,102827.72
2019-03-26T18:42:10.503Z,102830.41
2019-03-26T18:44:54.606Z,102825.66
2019-03-26T18:47:39.430Z,102804.32
2019-03-26T18:50:26.165Z,102831.94
2019-03-26T18:53:10.924Z,102811.58
2019-03-26T18:55:54.734Z,102815.55
2019-03-26T18:58:38.663Z,102844.41
2019-03-26T19:01:23.673Z,102847.48
2019-03-26T19:04:08.448Z,102821.67
2019-03-26T19:06:52.139Z,102845.73
2019-03-26T19:09:36.423Z,102852.77
2019-03-26T19:12:20.990Z,102850.11
2019-03-26T19:15:05.929Z,102853.08
2019-03-26T19:17:39.455Z,102850.00
2019-03-26T19:20:12.902Z,102847.19
2019-03-26T19:22:57.062Z,102832.24
2019-03-26T19:25:41.383Z,102831.77
2019-03-26T19:28:25.168Z,102837.23
2019-03-26T19:31:09.831Z,102861.78
2019-03-26T19:33:54.090Z,102833.00
2019-03-26T19:36:38.737Z,102861.98
2019-03-26T19:39:23.995Z,102837.65
2019-03-26T19:42:08.521Z,102840.45
2019-03-26T19:47:37.876Z,102871.33
2019-03-26T19:50:23.900Z,102869.17
2019-03-26T19:53:08.168Z,102844.10
2019-03-26T19:55:53.311Z,102872.25
2019-03-26T19:58:36.190Z,102871.83
2019-03-26T20:01:18.237Z,102868.42
2019-03-26T20:04:02.314Z,102863.55
2019-03-26T20:06:46.302Z,102867.36
2019-03-26T20:09:30.432Z,102835.63
2019-03-26T20:12:15.089Z,102866.84
2019-03-26T20:14:59.070Z,102841.05
2019-03-26T20:17:43.787Z,102834.34
2019-03-26T20:20:28.008Z,102851.77
2019-03-26T20:23:12.206Z,102875.45
2019-03-26T20:25:59.972Z,102847.81
2019-03-26T20:28:44.558Z,102874.41
2019-03-26T20:31:29.265Z,102838.72
2019-03-26T20:34:13.853Z,102846.80
2019-03-26T20:36:58.133Z,102854.44
2019-03-26T20:39:42.048Z,102880.94
2019-03-26T20:42:26.660Z,102858.72
2019-03-26T20:45:00.002Z,102885.20
2019-03-26T20:47:44.360Z,102861.89
2019-03-26T20:50:28.314Z,102864.45
2019-03-26T20:53:12.643Z,102867.00
2019-03-26T20:55:56.817Z,102897.62
2019-03-26T20:58:41.899Z,102879.44
2019-03-26T21:01:15.550Z,102905.63
2019-03-26T21:04:00.377Z,102912.83
2019-03-26T21:06:45.180Z,102885.02
2019-03-26T21:09:29.408Z,102880.55
2019-03-26T21:12:13.767Z,102878.16
2019-03-26T21:14:57.918Z,102879.17
2019-03-26T21:17:41.752Z,102909.69
2019-03-26T21:20:26.254Z,102884.91
2019-03-26T21:23:10.934Z,102914.13
2019-03-26T21:25:54.990Z,102908.67
2019-03-26T21:28:40.296Z,102886.59
2019-03-26T21:31:24.119Z,102885.64
2019-03-26T21:34:08.636Z,102882.59
2019-03-26T21:36:52.917Z,102912.03
2019-03-26T21:39:37.892Z,102919.94
2019-03-26T21:42:22.709Z,102897.27
2019-03-26T21:45:07.603Z,102887.67
2019-03-26T21:47:51.694Z,102889.62
2019-03-26T21:50:36.546Z,102893.78
2019-03-26T21:53:20.243Z,102912.78
2019-03-26T21:56:06.704Z,102890.81
2019-03-26T21:58:51.423Z,102901.80
2019-03-26T22:01:36.274Z,102917.92
2019-03-26T22:04:20.675Z,102890.11
2019-03-26T22:07:05.467Z,102918.09
2019-03-26T22:09:49.382Z,102899.46
2019-03-26T22:12:34.226Z,102893.58
2019-03-26T22:15:19.036Z,102922.74
2019-03-26T22:18:03.747Z,102896.60
2019-03-26T22:20:48.780Z,102922.70
2019-03-26T22:23:32.565Z,102926.32
2019-03-26T22:26:17.412Z,102906.34
2019-03-26T22:29:01.822Z,102902.78
2019-03-26T22:31:46.505Z,102910.20
2019-03-26T22:34:31.187Z,102911.66
2019-03-26T22:37:16.510Z,102918.95
2019-03-26T22:40:01.378Z,102916.23
2019-03-26T22:42:45.966Z,102945.79
2019-03-26T22:45:30.698Z,102916.31
2019-03-26T22:48:14.567Z,102920.20
2019-03-26T22:50:58.710Z,102930.48
2019-03-26T22:53:42.821Z,102929.03
2019-03-26T22:56:28.054Z,102940.06
2019-03-26T22:59:12.664Z,102961.98
2019-03-26T23:01:57.557Z,102936.88
2019-03-26T23:04:41.821Z,102966.09
2019-03-26T23:07:26.300Z,102963.28
2019-03-26T23:10:10.333Z,102950.06
2019-03-26T23:12:54.204Z,102955.69
2019-03-26T23:15:38.453Z,102964.63
2019-03-26T23:18:22.538Z,102962.26
2019-03-26T23:21:06.800Z,102983.52
2019-03-26T23:23:51.528Z,102972.31
2019-03-26T23:26:35.594Z,102960.12
2019-03-26T23:29:19.605Z,102991.42
2019-03-26T23:32:03.732Z,102991.48
2019-03-26T23:34:47.520Z,102962.33
2019-03-26T23:37:31.445Z,102964.45
2019-03-26T23:40:16.166Z,102990.59
2019-03-26T23:43:00.808Z,102974.45
2019-03-26T23:45:46.009Z,102999.33
2019-03-26T23:48:30.934Z,103002.14
2019-03-26T23:51:15.340Z,102979.39
2019-03-26T23:53:59.107Z,102974.67
2019-03-26T23:56:43.479Z,102975.13
2019-03-26T23:59:28.025Z,102974.69
